Time;durP1;ratioP1;P1;durP2;ratioP2;P2;SDS_P1;SDS_P2;PMS_P1;PMS_P2;Temp;Humidity;BMP_temperature;BMP_pressure;BME280_temperature;BME280_humidity;BME280_pressure;Samples;Min_cycle;Max_cycle;Signal;HPM_P1;HPM_P2
2022/06/20 00:00:12;;;;;;;;;;;;;;;;;;6219203;23;19914;-80
2022/06/20 00:02:41;;;;;;;;;;;;;;;;;;6219189;23;19966;-82
2022/06/20 00:05:06;;;;;;;;;;;;;;;;;;6218686;23;19914;-82
2022/06/20 00:07:32;;;;;;;;;;;;;;;;;;6245431;23;19907;-81
2022/06/20 00:09:57;;;;;;;;;;;;;;;;;;6245442;23;20378;-82
2022/06/20 00:12:23;;;;;;;;;;;;;;;;;;6249606;23;19949;-81
2022/06/20 00:14:50;;;;;;;;;;;;;;;;;;6259239;22;20042;-81
2022/06/20 00:17:16;;;;;;;;;;;;;;;;;;6244645;23;19934;-81
2022/06/20 00:19:42;;;;;;;;;;;;;;;;;;6218822;23;19907;-81
2022/06/20 00:22:08;;;;;;;;;;;;;;;;;;6245155;23;20009;-81
2022/06/20 00:24:34;;;;;;;;;;;;;;;;;;6245553;23;19956;-81
2022/06/20 00:26:59;;;;;;;;;;;;;;;;;;6245244;23;20228;-81
2022/06/20 00:29:24;;;;;;;;;;;;;;;;;;6218233;23;20278;-81
2022/06/20 00:31:50;;;;;;;;;;;;;;;;;;6245492;23;20307;-81
2022/06/20 00:34:15;;;;;;;;;;;;;;;;;;6257502;22;19944;-80
2022/06/20 00:36:40;;;;;;;;;;;;;;;;;;6247295;23;19930;-80
2022/06/20 00:39:06;;;;;;;;;;;;;;;;;;6245744;23;19939;-81
2022/06/20 00:41:31;;;;;;;;;;;;;;;;;;6218888;23;19908;-81
2022/06/20 00:43:57;;;;;;;;;;;;;;;;;;6218471;23;19908;-81
2022/06/20 00:46:36;;;;;;;;;;;;;;;;;;6218538;23;19907;-81
2022/06/20 00:49:03;;;;;;;;;;;;;;;;;;6244925;23;19908;-81
2022/06/20 00:51:40;;;;;;;;;;;;;;;;;;6218337;23;19912;-81
2022/06/20 00:54:11;;;;;;;;;;;;;;;;;;6228878;22;19935;-82
2022/06/20 00:56:57;;;;;;;;;;;;;;;;;;6257369;22;19911;-81
2022/06/20 00:59:27;;;;;;;;;;;;;;;;;;6244619;23;20303;-81
2022/06/20 01:01:52;;;;;;;;;;;;;;;;;;6218157;23;19970;-81
2022/06/20 01:04:26;;;;;;;;;;;;;;;;;;6218003;23;20289;-80
2022/06/20 01:06:53;;;;;;;;;;;;;;;;;;6218066;23;19930;-81
2022/06/20 01:09:20;;;;;;;;;;;;;;;;;;6245161;23;19983;-80
2022/06/20 01:11:52;;;;;;;;;;;;;;;;;;6218498;23;19907;-80
2022/06/20 01:14:22;;;;;;;;;;;;;;;;;;6222529;23;19915;-83
2022/06/20 01:16:48;;;;;;;;;;;;;;;;;;6260689;22;20341;-80
2022/06/20 01:19:13;;;;;;;;;;;;;;;;;;6244459;23;19908;-80
2022/06/20 01:21:38;;;;;;;;;;;;;;;;;;6218154;23;19915;-79
2022/06/20 01:24:23;;;;;;;;;;;;;;;;;;6218866;23;20306;-81
2022/06/20 01:26:54;;;;;;;;;;;;;;;;;;6244716;23;19915;-81
2022/06/20 01:29:20;;;;;;;;;;;;;;;;;;6218398;23;19986;-80
2022/06/20 01:31:47;;;;;;;;;;;;;;;;;;6244948;23;19919;-82
2022/06/20 01:34:13;;;;;;;;;;;;;;;;;;6237782;23;19911;-81
2022/06/20 01:39:22;;;;;;;;;;;;;;;;;;6223791;23;19915;-82
2022/06/20 01:44:31;;;;;;;;;;;;;;;;;;6244930;23;19990;-81
2022/06/20 01:46:57;;;;;;;;;;;;;;;;;;6218021;23;19908;-81
2022/06/20 01:49:23;;;;;;;;;;;;;;;;;;6217798;23;19914;-81
2022/06/20 01:51:51;;;;;;;;;;;;;;;;;;6246314;23;19911;-81
2022/06/20 01:54:16;;;;;;;;;;;;;;;;;;6237386;23;19945;-82
2022/06/20 01:56:42;;;;;;;;;;;;;;;;;;6196383;23;19903;-82
2022/06/20 01:59:11;;;;;;;;;;;;;;;;;;6247442;23;20247;-81
2022/06/20 02:01:37;;;;;;;;;;;;;;;;;;6219840;23;19981;-81
2022/06/20 02:04:07;;;;;;;;;;;;;;;;;;6220185;23;19903;-81
2022/06/20 02:06:32;;;;;;;;;;;;;;;;;;6219810;23;19907;-81
2022/06/20 02:08:58;;;;;;;;;;;;;;;;;;6246799;23;19911;-82
2022/06/20 02:11:33;;;;;;;;;;;;;;;;;;6246667;23;19908;-81
2022/06/20 02:14:03;;;;;;;;;;;;;;;;;;6253077;23;19923;-81
2022/06/20 02:16:28;;;;;;;;;;;;;;;;;;6250179;23;20235;-79
2022/06/20 02:18:54;;;;;;;;;;;;;;;;;;6222031;23;19930;-81
2022/06/20 02:21:21;;;;;;;;;;;;;;;;;;6194112;23;20015;-82
2022/06/20 02:23:47;;;;;;;;;;;;;;;;;;6219432;23;19907;-81
2022/06/20 02:26:13;;;;;;;;;;;;;;;;;;6193897;23;19911;-81
2022/06/20 02:28:39;;;;;;;;;;;;;;;;;;6245909;23;19966;-81
2022/06/20 02:31:04;;;;;;;;;;;;;;;;;;6219113;23;19923;-81
2022/06/20 02:33:30;;;;;;;;;;;;;;;;;;6249283;23;20380;-81
2022/06/20 02:35:59;;;;;;;;;;;;;;;;;;6228488;23;19927;-80
2022/06/20 02:38:25;;;;;;;;;;;;;;;;;;6223514;23;19962;-81
2022/06/20 02:40:50;;;;;;;;;;;;;;;;;;6219226;23;19907;-82
2022/06/20 02:43:15;;;;;;;;;;;;;;;;;;6219026;23;19908;-82
2022/06/20 02:45:41;;;;;;;;;;;;;;;;;;6218686;23;19982;-81
2022/06/20 02:48:06;;;;;;;;;;;;;;;;;;6245751;23;19908;-81
2022/06/20 02:50:34;;;;;;;;;;;;;;;;;;6219255;23;19907;-81
2022/06/20 02:53:28;;;;;;;;;;;;;;;;;;6219070;23;19908;-80
2022/06/20 02:55:54;;;;;;;;;;;;;;;;;;6234793;23;19911;-81
2022/06/20 02:58:23;;;;;;;;;;;;;;;;;;6194008;23;19914;-82
2022/06/20 03:00:52;;;;;;;;;;;;;;;;;;6219635;23;19907;-81
2022/06/20 03:03:23;;;;;;;;;;;;;;;;;;6219085;23;19907;-81
2022/06/20 03:05:48;;;;;;;;;;;;;;;;;;6219190;23;19908;-81
2022/06/20 03:08:14;;;;;;;;;;;;;;;;;;6218565;23;19907;-80
2022/06/20 03:10:40;;;;;;;;;;;;;;;;;;6194673;23;20238;-81
2022/06/20 03:13:06;;;;;;;;;;;;;;;;;;6218733;23;20301;-80
2022/06/20 03:15:31;;;;;;;;;;;;;;;;;;6225842;23;19912;-81
2022/06/20 03:17:57;;;;;;;;;;;;;;;;;;6245985;23;19933;-81
2022/06/20 03:20:25;;;;;;;;;;;;;;;;;;6245777;23;19931;-82
2022/06/20 03:23:09;;;;;;;;;;;;;;;;;;6220448;23;20299;-80
2022/06/20 03:25:35;;;;;;;;;;;;;;;;;;6245697;23;19930;-80
2022/06/20 03:28:01;;;;;;;;;;;;;;;;;;6219689;23;20315;-80
2022/06/20 03:30:30;;;;;;;;;;;;;;;;;;6219040;23;19959;-80
2022/06/20 03:32:56;;;;;;;;;;;;;;;;;;6218512;23;19914;-80
2022/06/20 03:35:21;;;;;;;;;;;;;;;;;;6227007;23;19911;-80
2022/06/20 03:37:46;;;;;;;;;;;;;;;;;;6224112;23;19908;-80
2022/06/20 03:40:12;;;;;;;;;;;;;;;;;;6245645;23;19914;-82
2022/06/20 03:42:37;;;;;;;;;;;;;;;;;;6221612;23;19930;-81
2022/06/20 03:45:03;;;;;;;;;;;;;;;;;;6245207;23;20338;-80
2022/06/20 03:47:33;;;;;;;;;;;;;;;;;;6193189;23;19914;-81
2022/06/20 03:50:06;;;;;;;;;;;;;;;;;;6245295;23;19907;-80
2022/06/20 03:52:33;;;;;;;;;;;;;;;;;;6218176;23;19961;-80
2022/06/20 03:55:12;;;;;;;;;;;;;;;;;;6220837;23;19908;-81
2022/06/20 03:57:37;;;;;;;;;;;;;;;;;;6229216;23;19941;-81
2022/06/20 04:00:05;;;;;;;;;;;;;;;;;;6245429;23;19973;-81
2022/06/20 04:02:33;;;;;;;;;;;;;;;;;;6250554;23;20254;-81
2022/06/20 04:05:18;;;;;;;;;;;;;;;;;;6218957;23;20234;-81
2022/06/20 04:07:45;;;;;;;;;;;;;;;;;;6245089;23;20284;-81
2022/06/20 04:12:57;;;;;;;;;;;;;;;;;;6244365;23;20029;-78
2022/06/20 04:15:34;;;;;;;;;;;;;;;;;;6219651;23;19908;-77
2022/06/20 04:18:28;;;;;;;;;;;;;;;;;;6248689;23;19919;-77
2022/06/20 04:21:03;;;;;;;;;;;;;;;;;;6220845;23;20002;-77
2022/06/20 04:23:31;;;;;;;;;;;;;;;;;;6245403;23;19903;-78
2022/06/20 04:25:58;;;;;;;;;;;;;;;;;;6245010;23;20291;-78
2022/06/20 04:28:34;;;;;;;;;;;;;;;;;;6218272;23;19907;-77
2022/06/20 04:31:02;;;;;;;;;;;;;;;;;;6218606;23;20345;-77
2022/06/20 04:33:35;;;;;;;;;;;;;;;;;;6218175;23;19914;-77
2022/06/20 04:36:19;;;;;;;;;;;;;;;;;;6221129;23;19918;-77
2022/06/20 04:38:47;;;;;;;;;;;;;;;;;;6248967;23;19917;-78
2022/06/20 04:41:17;;;;;;;;;;;;;;;;;;6215305;23;19907;-77
2022/06/20 04:44:02;;;;;;;;;;;;;;;;;;6243361;23;19979;-79
2022/06/20 04:46:38;;;;;;;;;;;;;;;;;;6242573;23;19918;-77
2022/06/20 04:49:03;;;;;;;;;;;;;;;;;;6244749;23;19911;-78
2022/06/20 04:51:35;;;;;;;;;;;;;;;;;;6243221;23;19910;-75
2022/06/20 04:54:01;;;;;;;;;;;;;;;;;;6242604;23;19927;-76
2022/06/20 04:56:29;;;;;;;;;;;;;;;;;;6217706;23;19904;-75
2022/06/20 04:59:02;;;;;;;;;;;;;;;;;;6219070;23;19982;-76
2022/06/20 05:01:29;;;;;;;;;;;;;;;;;;6212601;23;20342;-77
2022/06/20 05:03:57;;;;;;;;;;;;;;;;;;6239293;23;19904;-78
2022/06/20 05:06:26;;;;;;;;;;;;;;;;;;6212889;23;20431;-77
2022/06/20 05:08:55;;;;;;;;;;;;;;;;;;6206767;23;20362;-76
2022/06/20 05:11:31;;;;;;;;;;;;;;;;;;6208147;23;19927;-78
2022/06/20 05:14:12;;;;;;;;;;;;;;;;;;6213161;23;20155;-78
2022/06/20 05:16:44;;;;;;;;;;;;;;;;;;6246040;23;20242;-75
2022/06/20 05:19:25;;;;;;;;;;;;;;;;;;6250377;23;19986;-76
2022/06/20 05:21:53;;;;;;;;;;;;;;;;;;6240776;23;19908;-77
2022/06/20 05:24:20;;;;;;;;;;;;;;;;;;6212693;23;19914;-78
2022/06/20 05:26:45;;;;;;;;;;;;;;;;;;6214374;23;19907;-78
2022/06/20 05:29:13;;;;;;;;;;;;;;;;;;6215369;23;20357;-78
2022/06/20 05:31:45;;;;;;;;;;;;;;;;;;6190054;23;19911;-77
2022/06/20 05:34:16;;;;;;;;;;;;;;;;;;6214957;23;19982;-77
2022/06/20 05:37:03;;;;;;;;;;;;;;;;;;6248450;23;19907;-79
2022/06/20 05:39:29;;;;;;;;;;;;;;;;;;6224059;23;19971;-76
2022/06/20 05:41:55;;;;;;;;;;;;;;;;;;6216511;23;19911;-76
2022/06/20 05:44:20;;;;;;;;;;;;;;;;;;6243626;23;19965;-77
2022/06/20 05:46:49;;;;;;;;;;;;;;;;;;6246148;23;19937;-77
2022/06/20 05:49:20;;;;;;;;;;;;;;;;;;6219048;23;19908;-78
2022/06/20 05:51:45;;;;;;;;;;;;;;;;;;6192218;23;19910;-77
2022/06/20 05:54:14;;;;;;;;;;;;;;;;;;6217951;23;19939;-77
2022/06/20 05:56:43;;;;;;;;;;;;;;;;;;6249040;23;19904;-75
2022/06/20 05:59:32;;;;;;;;;;;;;;;;;;6253718;23;20196;-76
2022/06/20 06:01:58;;;;;;;;;;;;;;;;;;6202548;23;19973;-78
2022/06/20 06:04:34;;;;;;;;;;;;;;;;;;6191389;23;19903;-76
2022/06/20 06:07:05;;;;;;;;;;;;;;;;;;6243663;23;19907;-78
2022/06/20 06:09:36;;;;;;;;;;;;;;;;;;6241770;23;20395;-76
2022/06/20 06:12:03;;;;;;;;;;;;;;;;;;6214144;23;19908;-78
2022/06/20 06:14:36;;;;;;;;;;;;;;;;;;6214070;23;19907;-77
2022/06/20 06:17:04;;;;;;;;;;;;;;;;;;6220448;23;19912;-76
2022/06/20 06:19:29;;;;;;;;;;;;;;;;;;6217773;23;20319;-78
2022/06/20 06:21:55;;;;;;;;;;;;;;;;;;6240365;23;19908;-79
2022/06/20 06:24:24;;;;;;;;;;;;;;;;;;6213985;23;20342;-79
2022/06/20 06:26:52;;;;;;;;;;;;;;;;;;6215508;23;20298;-78
2022/06/20 06:29:19;;;;;;;;;;;;;;;;;;6191551;23;19907;-77
2022/06/20 06:31:46;;;;;;;;;;;;;;;;;;6242780;23;19989;-79
2022/06/20 06:34:30;;;;;;;;;;;;;;;;;;6216302;23;19907;-78
2022/06/20 06:37:00;;;;;;;;;;;;;;;;;;6220706;23;19907;-77
2022/06/20 06:39:28;;;;;;;;;;;;;;;;;;6224919;23;19957;-80
2022/06/20 06:41:57;;;;;;;;;;;;;;;;;;6244840;23;19908;-79
2022/06/20 06:44:27;;;;;;;;;;;;;;;;;;6192132;23;19908;-77
2022/06/20 06:46:53;;;;;;;;;;;;;;;;;;6217512;23;20282;-79
2022/06/20 06:49:38;;;;;;;;;;;;;;;;;;6245259;23;19907;-76
2022/06/20 06:52:14;;;;;;;;;;;;;;;;;;6247844;23;20238;-78
2022/06/20 06:54:46;;;;;;;;;;;;;;;;;;6244694;23;19907;-77
2022/06/20 06:57:18;;;;;;;;;;;;;;;;;;6249109;23;19917;-78
2022/06/20 06:59:44;;;;;;;;;;;;;;;;;;6249373;23;19993;-80
2022/06/20 07:02:14;;;;;;;;;;;;;;;;;;6191488;23;19927;-78
2022/06/20 07:04:42;;;;;;;;;;;;;;;;;;6217199;23;19912;-78
2022/06/20 07:07:34;;;;;;;;;;;;;;;;;;6189819;23;19907;-79
2022/06/20 07:10:00;;;;;;;;;;;;;;;;;;6219123;23;19978;-79
2022/06/20 07:12:42;;;;;;;;;;;;;;;;;;6245636;23;19907;-78
2022/06/20 07:15:12;;;;;;;;;;;;;;;;;;6218891;23;19907;-77
2022/06/20 07:17:43;;;;;;;;;;;;;;;;;;6258516;23;20326;-77
2022/06/20 07:20:09;;;;;;;;;;;;;;;;;;6222432;23;19942;-79
2022/06/20 07:22:34;;;;;;;;;;;;;;;;;;6217562;23;19904;-78
2022/06/20 07:25:02;;;;;;;;;;;;;;;;;;6217845;23;19908;-79
2022/06/20 07:27:30;;;;;;;;;;;;;;;;;;6245042;23;19908;-78
2022/06/20 07:30:01;;;;;;;;;;;;;;;;;;6222083;23;19917;-78
2022/06/20 07:32:29;;;;;;;;;;;;;;;;;;6243507;23;19931;-77
2022/06/20 07:34:57;;;;;;;;;;;;;;;;;;6215789;23;19907;-77
2022/06/20 07:37:29;;;;;;;;;;;;;;;;;;6249165;23;19934;-76
2022/06/20 07:40:27;;;;;;;;;;;;;;;;;;6221893;23;19934;-78
2022/06/20 07:43:00;;;;;;;;;;;;;;;;;;6191698;23;20001;-78
2022/06/20 07:45:32;;;;;;;;;;;;;;;;;;6215132;23;20319;-79
2022/06/20 07:48:06;;;;;;;;;;;;;;;;;;6239918;23;19915;-76
2022/06/20 07:50:34;;;;;;;;;;;;;;;;;;6237322;23;19915;-74
2022/06/20 07:53:12;;;;;;;;;;;;;;;;;;6238830;23;20391;-75
2022/06/20 07:55:39;;;;;;;;;;;;;;;;;;6210167;23;19965;-77
2022/06/20 07:58:09;;;;;;;;;;;;;;;;;;6246831;23;20311;-79
2022/06/20 08:00:41;;;;;;;;;;;;;;;;;;6217277;23;19934;-78
2022/06/20 08:03:25;;;;;;;;;;;;;;;;;;6240882;23;19907;-77
2022/06/20 08:06:01;;;;;;;;;;;;;;;;;;6240226;23;19975;-77
2022/06/20 08:08:47;;;;;;;;;;;;;;;;;;6215548;23;20319;-79
2022/06/20 08:11:39;;;;;;;;;;;;;;;;;;6239617;23;20260;-75
2022/06/20 08:13:58;;;;;;;;;;;;;;;;;;6241212;23;19995;-77
2022/06/20 08:16:35;;;;;;;;;;;;;;;;;;6214004;23;19911;-79
2022/06/20 08:19:00;;;;;;;;;;;;;;;;;;6223396;23;20239;-76
2022/06/20 08:21:30;;;;;;;;;;;;;;;;;;6239989;23;19918;-79
2022/06/20 08:24:06;;;;;;;;;;;;;;;;;;6188602;23;20307;-78
2022/06/20 08:26:32;;;;;;;;;;;;;;;;;;6212694;23;19960;-78
2022/06/20 08:28:58;;;;;;;;;;;;;;;;;;6191454;23;19914;-78
2022/06/20 08:31:30;;;;;;;;;;;;;;;;;;6240653;23;20496;-77
2022/06/20 08:34:14;;;;;;;;;;;;;;;;;;6240039;23;19908;-78
2022/06/20 08:36:42;;;;;;;;;;;;;;;;;;6239944;23;19991;-76
2022/06/20 08:39:37;;;;;;;;;;;;;;;;;;6252014;23;19931;-77
2022/06/20 08:42:07;;;;;;;;;;;;;;;;;;6221301;23;19907;-77
2022/06/20 08:44:51;;;;;;;;;;;;;;;;;;6215338;23;19908;-78
2022/06/20 08:47:41;;;;;;;;;;;;;;;;;;6242385;23;19908;-78
2022/06/20 08:50:13;;;;;;;;;;;;;;;;;;6245686;23;20331;-76
2022/06/20 08:52:57;;;;;;;;;;;;;;;;;;6242348;23;19911;-78
2022/06/20 08:55:25;;;;;;;;;;;;;;;;;;6244408;23;19907;-78
2022/06/20 08:58:00;;;;;;;;;;;;;;;;;;6246351;23;19915;-77
2022/06/20 09:00:28;;;;;;;;;;;;;;;;;;6222648;23;19908;-76
2022/06/20 09:03:12;;;;;;;;;;;;;;;;;;6241947;23;19915;-75
2022/06/20 09:05:56;;;;;;;;;;;;;;;;;;6243243;23;19946;-77
2022/06/20 09:08:29;;;;;;;;;;;;;;;;;;6241801;23;19988;-76
2022/06/20 09:11:24;;;;;;;;;;;;;;;;;;6214936;23;19911;-78
2022/06/20 09:13:52;;;;;;;;;;;;;;;;;;6160823;23;19912;-76
2022/06/20 09:16:17;;;;;;;;;;;;;;;;;;6215139;23;19907;-77
2022/06/20 09:19:06;;;;;;;;;;;;;;;;;;6244226;23;20091;-76
2022/06/20 09:21:34;;;;;;;;;;;;;;;;;;6215561;23;19914;-77
2022/06/20 09:24:02;;;;;;;;;;;;;;;;;;6242438;23;19934;-77
2022/06/20 09:26:34;;;;;;;;;;;;;;;;;;6241141;23;19908;-77
2022/06/20 09:29:07;;;;;;;;;;;;;;;;;;6240646;23;19965;-73
2022/06/20 09:31:41;;;;;;;;;;;;;;;;;;6215269;23;19953;-77
2022/06/20 09:34:20;;;;;;;;;;;;;;;;;;6241916;23;19911;-77
2022/06/20 09:36:46;;;;;;;;;;;;;;;;;;6217018;23;19933;-77
2022/06/20 09:39:29;;;;;;;;;;;;;;;;;;6247268;23;19947;-79
2022/06/20 09:41:55;;;;;;;;;;;;;;;;;;6217379;23;19904;-77
2022/06/20 09:44:32;;;;;;;;;;;;;;;;;;6241932;23;19911;-76
2022/06/20 09:47:00;;;;;;;;;;;;;;;;;;6215266;23;19952;-76
2022/06/20 09:49:33;;;;;;;;;;;;;;;;;;6239921;23;20348;-79
2022/06/20 09:52:17;;;;;;;;;;;;;;;;;;6216197;23;19961;-77
2022/06/20 09:55:01;;;;;;;;;;;;;;;;;;6242220;23;19926;-77
2022/06/20 09:57:30;;;;;;;;;;;;;;;;;;6243161;23;19938;-77
2022/06/20 10:00:00;;;;;;;;;;;;;;;;;;6254403;23;19915;-81
2022/06/20 10:02:31;;;;;;;;;;;;;;;;;;6217386;23;19908;-78
2022/06/20 10:05:19;;;;;;;;;;;;;;;;;;6214860;23;19907;-78
2022/06/20 10:07:58;;;;;;;;;;;;;;;;;;6215597;23;20322;-76
2022/06/20 10:10:35;;;;;;;;;;;;;;;;;;6242749;23;19994;-77
2022/06/20 10:13:19;;;;;;;;;;;;;;;;;;6216737;23;19914;-76
2022/06/20 10:15:44;;;;;;;;;;;;;;;;;;6242150;23;20025;-78
2022/06/20 10:18:28;;;;;;;;;;;;;;;;;;6243197;23;19911;-78
2022/06/20 10:21:11;;;;;;;;;;;;;;;;;;6254039;23;19908;-76
2022/06/20 10:23:47;;;;;;;;;;;;;;;;;;6243946;23;19982;-77
2022/06/20 10:26:13;;;;;;;;;;;;;;;;;;6217435;23;19978;-77
2022/06/20 10:28:47;;;;;;;;;;;;;;;;;;6217306;23;19919;-78
2022/06/20 10:31:12;;;;;;;;;;;;;;;;;;6245163;23;20019;-80
2022/06/20 10:33:38;;;;;;;;;;;;;;;;;;6245732;23;19998;-77
2022/06/20 10:36:21;;;;;;;;;;;;;;;;;;6245386;23;19907;-77
2022/06/20 10:39:05;;;;;;;;;;;;;;;;;;6248986;23;19908;-79
2022/06/20 10:41:32;;;;;;;;;;;;;;;;;;6252493;23;19907;-78
2022/06/20 10:44:06;;;;;;;;;;;;;;;;;;6245457;23;19915;-80
2022/06/20 10:46:34;;;;;;;;;;;;;;;;;;6242767;23;20524;-78
2022/06/20 10:49:09;;;;;;;;;;;;;;;;;;6243086;23;20345;-80
2022/06/20 10:51:54;;;;;;;;;;;;;;;;;;6243349;23;19989;-78
2022/06/20 10:54:32;;;;;;;;;;;;;;;;;;6246370;23;19951;-77
2022/06/20 10:57:03;;;;;;;;;;;;;;;;;;6242541;23;19908;-77
2022/06/20 10:59:38;;;;;;;;;;;;;;;;;;6242264;23;20389;-76
2022/06/20 11:02:09;;;;;;;;;;;;;;;;;;6243046;23;19918;-78
2022/06/20 11:04:41;;;;;;;;;;;;;;;;;;6242735;23;20160;-78
2022/06/20 11:07:06;;;;;;;;;;;;;;;;;;6241532;23;19983;-78
2022/06/20 11:09:50;;;;;;;;;;;;;;;;;;6241570;23;19908;-78
2022/06/20 11:12:30;;;;;;;;;;;;;;;;;;6241417;23;19908;-76
2022/06/20 11:14:57;;;;;;;;;;;;;;;;;;6243419;23;19914;-77
2022/06/20 11:17:43;;;;;;;;;;;;;;;;;;6217499;23;19911;-78
2022/06/20 11:20:12;;;;;;;;;;;;;;;;;;6241047;23;20238;-78
2022/06/20 11:22:38;;;;;;;;;;;;;;;;;;6249104;23;19934;-79
2022/06/20 11:25:15;;;;;;;;;;;;;;;;;;6241670;23;20371;-79
2022/06/20 11:27:53;;;;;;;;;;;;;;;;;;6241080;23;19981;-78
2022/06/20 11:30:23;;;;;;;;;;;;;;;;;;6243242;23;19907;-77
2022/06/20 11:32:57;;;;;;;;;;;;;;;;;;6241386;23;19912;-79
2022/06/20 11:35:26;;;;;;;;;;;;;;;;;;6212833;23;19982;-79
2022/06/20 11:38:20;;;;;;;;;;;;;;;;;;6240862;23;19973;-78
2022/06/20 11:40:48;;;;;;;;;;;;;;;;;;6141092;23;19900;-78
2022/06/20 11:43:14;;;;;;;;;;;;;;;;;;6245250;23;19947;-78
2022/06/20 11:45:39;;;;;;;;;;;;;;;;;;6243880;23;19907;-79
2022/06/20 11:48:23;;;;;;;;;;;;;;;;;;6243284;23;19914;-77
2022/06/20 11:50:49;;;;;;;;;;;;;;;;;;6215117;23;19911;-78
2022/06/20 11:53:15;;;;;;;;;;;;;;;;;;6214521;23;19930;-79
2022/06/20 11:55:45;;;;;;;;;;;;;;;;;;6241216;23;19930;-78
2022/06/20 11:58:16;;;;;;;;;;;;;;;;;;6188961;23;19907;-78
2022/06/20 12:01:04;;;;;;;;;;;;;;;;;;6242993;23;19907;-77
2022/06/20 12:03:40;;;;;;;;;;;;;;;;;;6226162;23;20451;-78
2022/06/20 12:06:26;;;;;;;;;;;;;;;;;;6242019;23;19908;-80
2022/06/20 12:08:51;;;;;;;;;;;;;;;;;;6244622;23;19914;-77
2022/06/20 12:11:35;;;;;;;;;;;;;;;;;;6244318;23;19930;-78
2022/06/20 12:14:19;;;;;;;;;;;;;;;;;;6245214;23;19987;-78
2022/06/20 12:16:56;;;;;;;;;;;;;;;;;;6217897;23;19915;-79
2022/06/20 12:24:51;;;;;;;;;;;;;;;;;;6221473;23;19915;-78
2022/06/20 12:27:17;;;;;;;;;;;;;;;;;;6192220;23;19907;-79
2022/06/20 12:29:43;;;;;;;;;;;;;;;;;;6245109;23;20228;-78
2022/06/20 12:32:24;;;;;;;;;;;;;;;;;;6217581;23;20307;-79
2022/06/20 12:35:06;;;;;;;;;;;;;;;;;;6217410;23;20251;-79
2022/06/20 12:37:34;;;;;;;;;;;;;;;;;;6218315;23;20315;-79
2022/06/20 12:40:03;;;;;;;;;;;;;;;;;;6244857;23;20002;-77
2022/06/20 12:42:31;;;;;;;;;;;;;;;;;;6224243;23;19891;-77
2022/06/20 12:45:15;;;;;;;;;;;;;;;;;;6245112;23;19907;-78
2022/06/20 12:47:55;;;;;;;;;;;;;;;;;;6244928;23;19914;-78
2022/06/20 12:50:22;;;;;;;;;;;;;;;;;;6245750;23;19907;-78
2022/06/20 12:52:50;;;;;;;;;;;;;;;;;;6217668;23;19915;-78
2022/06/20 12:55:18;;;;;;;;;;;;;;;;;;6244975;23;19907;-78
2022/06/20 12:57:51;;;;;;;;;;;;;;;;;;6218034;23;20042;-78
2022/06/20 13:00:22;;;;;;;;;;;;;;;;;;6217785;23;20315;-77
2022/06/20 13:03:00;;;;;;;;;;;;;;;;;;6250709;22;19915;-79
2022/06/20 13:05:44;;;;;;;;;;;;;;;;;;6246134;23;19907;-78
2022/06/20 13:08:15;;;;;;;;;;;;;;;;;;6243548;23;19908;-77
2022/06/20 13:10:50;;;;;;;;;;;;;;;;;;6244152;23;19907;-77
2022/06/20 13:13:34;;;;;;;;;;;;;;;;;;6218198;23;20593;-77
2022/06/20 13:16:09;;;;;;;;;;;;;;;;;;6244840;23;19908;-77
2022/06/20 13:18:44;;;;;;;;;;;;;;;;;;6217948;23;19912;-76
2022/06/20 13:21:22;;;;;;;;;;;;;;;;;;6217858;23;19907;-76
2022/06/20 13:24:23;;;;;;;;;;;;;;;;;;6221466;23;19947;-77
2022/06/20 13:27:09;;;;;;;;;;;;;;;;;;6122410;23;19909;-77
2022/06/20 13:29:44;;;;;;;;;;;;;;;;;;6209821;23;19994;-76
2022/06/20 13:32:24;;;;;;;;;;;;;;;;;;6217252;23;19915;-76
2022/06/20 13:34:54;;;;;;;;;;;;;;;;;;6244161;23;19930;-76
2022/06/20 13:37:31;;;;;;;;;;;;;;;;;;6217664;23;19912;-76
2022/06/20 13:40:12;;;;;;;;;;;;;;;;;;6217865;23;19908;-77
2022/06/20 13:42:41;;;;;;;;;;;;;;;;;;6244227;23;19908;-76
2022/06/20 13:45:21;;;;;;;;;;;;;;;;;;6224970;23;19914;-78
2022/06/20 13:47:47;;;;;;;;;;;;;;;;;;6245663;23;19907;-77
2022/06/20 13:50:15;;;;;;;;;;;;;;;;;;6247778;23;20288;-77
2022/06/20 13:52:48;;;;;;;;;;;;;;;;;;6246184;23;19910;-77
2022/06/20 13:55:14;;;;;;;;;;;;;;;;;;6220139;23;19908;-77
2022/06/20 13:57:41;;;;;;;;;;;;;;;;;;6246086;23;19953;-77
2022/06/20 14:00:16;;;;;;;;;;;;;;;;;;6220022;23;19946;-76
2022/06/20 14:02:42;;;;;;;;;;;;;;;;;;6246490;23;19903;-75
2022/06/20 14:05:10;;;;;;;;;;;;;;;;;;6221163;23;19907;-76
2022/06/20 14:07:36;;;;;;;;;;;;;;;;;;6219759;23;19907;-77
2022/06/20 14:10:01;;;;;;;;;;;;;;;;;;6219547;23;19907;-78
2022/06/20 14:12:36;;;;;;;;;;;;;;;;;;6219647;23;19912;-76
2022/06/20 14:15:05;;;;;;;;;;;;;;;;;;6219776;23;19915;-76
2022/06/20 14:17:31;;;;;;;;;;;;;;;;;;6219686;23;19923;-77
2022/06/20 14:20:10;;;;;;;;;;;;;;;;;;6219148;23;20397;-77
2022/06/20 14:22:38;;;;;;;;;;;;;;;;;;6219905;23;19995;-77
2022/06/20 14:25:17;;;;;;;;;;;;;;;;;;6249858;23;20325;-76
2022/06/20 14:27:42;;;;;;;;;;;;;;;;;;6220546;23;19914;-76
2022/06/20 14:30:22;;;;;;;;;;;;;;;;;;6219420;23;19908;-77
2022/06/20 14:33:06;;;;;;;;;;;;;;;;;;6220198;23;19908;-77
2022/06/20 14:35:47;;;;;;;;;;;;;;;;;;6246062;23;19912;-77
2022/06/20 14:38:17;;;;;;;;;;;;;;;;;;6246169;23;19982;-77
2022/06/20 14:40:47;;;;;;;;;;;;;;;;;;6219457;23;19911;-83
2022/06/20 14:43:14;;;;;;;;;;;;;;;;;;6246330;23;20338;-83
2022/06/20 14:45:48;;;;;;;;;;;;;;;;;;6254257;23;19907;-83
2022/06/20 14:48:33;;;;;;;;;;;;;;;;;;6224176;23;19911;-83
2022/06/20 14:51:07;;;;;;;;;;;;;;;;;;6246260;23;20274;-83
2022/06/20 14:53:35;;;;;;;;;;;;;;;;;;6246034;23;19908;-82
2022/06/20 14:56:06;;;;;;;;;;;;;;;;;;6245856;23;20346;-83
2022/06/20 14:58:37;;;;;;;;;;;;;;;;;;6218930;23;19914;-82
2022/06/20 15:01:02;;;;;;;;;;;;;;;;;;6245805;23;19965;-82
2022/06/20 15:03:30;;;;;;;;;;;;;;;;;;6247603;23;19908;-82
2022/06/20 15:05:55;;;;;;;;;;;;;;;;;;6252291;23;19900;-82
2022/06/20 15:08:24;;;;;;;;;;;;;;;;;;6267600;23;19917;-82
2022/06/20 15:10:52;;;;;;;;;;;;;;;;;;6243686;23;20033;-82
2022/06/20 15:13:21;;;;;;;;;;;;;;;;;;6240932;23;19923;-83
2022/06/20 15:15:46;;;;;;;;;;;;;;;;;;6246843;23;19989;-82
2022/06/20 15:18:20;;;;;;;;;;;;;;;;;;6168666;23;19942;-82
2022/06/20 15:20:54;;;;;;;;;;;;;;;;;;6215817;23;19915;-83
2022/06/20 15:23:20;;;;;;;;;;;;;;;;;;6164504;23;19975;-83
2022/06/20 15:25:50;;;;;;;;;;;;;;;;;;6216713;23;19915;-82
2022/06/20 15:28:20;;;;;;;;;;;;;;;;;;6199315;23;20001;-83
2022/06/20 15:30:54;;;;;;;;;;;;;;;;;;6189210;23;19916;-83
2022/06/20 15:33:25;;;;;;;;;;;;;;;;;;6188693;23;19908;-83
2022/06/20 15:35:52;;;;;;;;;;;;;;;;;;6218128;23;19947;-82
2022/06/20 15:38:23;;;;;;;;;;;;;;;;;;6215968;23;19976;-83
2022/06/20 15:40:51;;;;;;;;;;;;;;;;;;6216947;23;19915;-83
2022/06/20 15:43:43;;;;;;;;;;;;;;;;;;6188499;23;19931;-83
2022/06/20 15:46:13;;;;;;;;;;;;;;;;;;6211395;23;19908;-83
2022/06/20 15:48:58;;;;;;;;;;;;;;;;;;6222688;23;19954;-82
2022/06/20 15:52:02;;;;;;;;;;;;;;;;;;6190661;23;19938;-82
2022/06/20 15:54:33;;;;;;;;;;;;;;;;;;6123434;23;19912;-82
2022/06/20 15:57:02;;;;;;;;;;;;;;;;;;6098885;23;19905;-83
2022/06/20 15:59:27;;;;;;;;;;;;;;;;;;6147529;23;19919;-83
2022/06/20 16:01:52;;;;;;;;;;;;;;;;;;6214547;23;20204;-83
2022/06/20 16:04:19;;;;;;;;;;;;;;;;;;6214557;23;19903;-83
2022/06/20 16:06:47;;;;;;;;;;;;;;;;;;6202486;22;19906;-82
2022/06/20 16:09:13;;;;;;;;;;;;;;;;;;6217992;23;19955;-82
2022/06/20 16:11:41;;;;;;;;;;;;;;;;;;6215186;23;19908;-83
2022/06/20 16:14:07;;;;;;;;;;;;;;;;;;6214562;23;19908;-83
2022/06/20 16:16:33;;;;;;;;;;;;;;;;;;6188852;23;19966;-84
2022/06/20 16:19:08;;;;;;;;;;;;;;;;;;6218706;23;19908;-83
2022/06/20 16:21:40;;;;;;;;;;;;;;;;;;6218422;23;19907;-83
2022/06/20 16:24:09;;;;;;;;;;;;;;;;;;6245169;23;19931;-83
2022/06/20 16:26:40;;;;;;;;;;;;;;;;;;6252331;23;19896;-83
2022/06/20 16:29:07;;;;;;;;;;;;;;;;;;6252372;22;20268;-83
2022/06/20 16:31:35;;;;;;;;;;;;;;;;;;6244837;23;19908;-83
2022/06/20 16:34:00;;;;;;;;;;;;;;;;;;6218834;23;19923;-83
2022/06/20 16:36:32;;;;;;;;;;;;;;;;;;6245656;23;19907;-84
2022/06/20 16:39:17;;;;;;;;;;;;;;;;;;6245496;23;19977;-83
2022/06/20 16:41:42;;;;;;;;;;;;;;;;;;6218039;23;19907;-83
2022/06/20 16:44:13;;;;;;;;;;;;;;;;;;6244694;23;19910;-83
2022/06/20 16:46:41;;;;;;;;;;;;;;;;;;6225262;23;19903;-84
2022/06/20 16:49:26;;;;;;;;;;;;;;;;;;6231327;23;19961;-84
2022/06/20 16:51:52;;;;;;;;;;;;;;;;;;6245013;23;19915;-82
2022/06/20 16:54:24;;;;;;;;;;;;;;;;;;6244918;23;19907;-83
2022/06/20 16:56:54;;;;;;;;;;;;;;;;;;6217951;23;20295;-83
2022/06/20 16:59:23;;;;;;;;;;;;;;;;;;6218232;23;19907;-84
2022/06/20 17:01:50;;;;;;;;;;;;;;;;;;6244246;23;19911;-83
2022/06/20 17:04:15;;;;;;;;;;;;;;;;;;6218196;23;19954;-83
2022/06/20 17:06:49;;;;;;;;;;;;;;;;;;6259280;23;20301;-83
2022/06/20 17:09:25;;;;;;;;;;;;;;;;;;6219066;23;19908;-83
2022/06/20 17:11:51;;;;;;;;;;;;;;;;;;6217761;23;20254;-83
2022/06/20 17:14:21;;;;;;;;;;;;;;;;;;6244805;23;19907;-83
2022/06/20 17:16:46;;;;;;;;;;;;;;;;;;6244274;23;19909;-83
2022/06/20 17:19:12;;;;;;;;;;;;;;;;;;6245174;23;19935;-83
2022/06/20 17:21:55;;;;;;;;;;;;;;;;;;6220639;23;19907;-82
2022/06/20 17:24:21;;;;;;;;;;;;;;;;;;6246939;23;19907;-82
2022/06/20 17:27:03;;;;;;;;;;;;;;;;;;6259126;22;19933;-83
2022/06/20 17:29:53;;;;;;;;;;;;;;;;;;6221992;23;20250;-83